sensor_id;sensor_type;location;lat;lon;timestamp;P1;durP1;ratioP1;P2;durP2;ratioP2
24567;SDS011;12731;52.182;8.716;2023-08-20T00:00:53;13.02;;;10.50;;
24567;SDS011;12731;52.182;8.716;2023-08-20T00:03:19;12.35;;;9.25;;
24567;SDS011;12731;52.182;8.716;2023-08-20T00:05:46;12.52;;;9.80;;
24567;SDS011;12731;52.182;8.716;2023-08-20T00:08:13;13.30;;;10.77;;
24567;SDS011;12731;52.182;8.716;2023-08-20T00:10:39;14.27;;;11.32;;
24567;SDS011;12731;52.182;8.716;2023-08-20T00:13:06;16.00;;;11.82;;
24567;SDS011;12731;52.182;8.716;2023-08-20T00:15:32;14.73;;;12.30;;
24567;SDS011;12731;52.182;8.716;2023-08-20T00:17:59;16.67;;;13.20;;
24567;SDS011;12731;52.182;8.716;2023-08-20T00:20:26;12.98;;;10.57;;
24567;SDS011;12731;52.182;8.716;2023-08-20T00:22:52;15.82;;;11.90;;
24567;SDS011;12731;52.182;8.716;2023-08-20T00:25:19;16.50;;;13.45;;
24567;SDS011;12731;52.182;8.716;2023-08-20T00:27:46;15.40;;;13.13;;
24567;SDS011;12731;52.182;8.716;2023-08-20T00:30:12;18.77;;;14.60;;
24567;SDS011;12731;52.182;8.716;2023-08-20T00:32:39;16.60;;;13.00;;
24567;SDS011;12731;52.182;8.716;2023-08-20T00:35:05;16.13;;;12.90;;
24567;SDS011;12731;52.182;8.716;2023-08-20T00:37:33;15.57;;;11.57;;
24567;SDS011;12731;52.182;8.716;2023-08-20T00:40:00;14.10;;;10.15;;
24567;SDS011;12731;52.182;8.716;2023-08-20T00:42:30;13.30;;;9.10;;
24567;SDS011;12731;52.182;8.716;2023-08-20T00:44:57;10.88;;;8.02;;
24567;SDS011;12731;52.182;8.716;2023-08-20T00:47:23;9.00;;;6.88;;
24567;SDS011;12731;52.182;8.716;2023-08-20T00:49:50;12.05;;;8.30;;
24567;SDS011;12731;52.182;8.716;2023-08-20T00:52:16;12.93;;;8.07;;
24567;SDS011;12731;52.182;8.716;2023-08-20T00:54:44;10.77;;;7.70;;
24567;SDS011;12731;52.182;8.716;2023-08-20T00:57:12;10.13;;;7.68;;
24567;SDS011;12731;52.182;8.716;2023-08-20T00:59:40;12.57;;;8.52;;
24567;SDS011;12731;52.182;8.716;2023-08-20T01:02:07;10.07;;;8.80;;
24567;SDS011;12731;52.182;8.716;2023-08-20T01:04:33;11.02;;;8.38;;
24567;SDS011;12731;52.182;8.716;2023-08-20T01:12:36;10.40;;;7.03;;
24567;SDS011;12731;52.182;8.716;2023-08-20T01:15:02;8.13;;;6.38;;
24567;SDS011;12731;52.182;8.716;2023-08-20T01:17:29;8.68;;;5.75;;
24567;SDS011;12731;52.182;8.716;2023-08-20T01:19:56;7.50;;;4.95;;
24567;SDS011;12731;52.182;8.716;2023-08-20T01:30:48;6.50;;;3.72;;
24567;SDS011;12731;52.182;8.716;2023-08-20T01:33:14;5.78;;;3.65;;
24567;SDS011;12731;52.182;8.716;2023-08-20T01:35:41;6.05;;;3.67;;
24567;SDS011;12731;52.182;8.716;2023-08-20T01:38:08;5.65;;;3.15;;
24567;SDS011;12731;52.182;8.716;2023-08-20T01:40:34;5.00;;;2.70;;
24567;SDS011;12731;52.182;8.716;2023-08-20T01:43:01;4.60;;;2.53;;
24567;SDS011;12731;52.182;8.716;2023-08-20T01:45:32;4.93;;;2.50;;
24567;SDS011;12731;52.182;8.716;2023-08-20T01:47:59;7.15;;;2.72;;
24567;SDS011;12731;52.182;8.716;2023-08-20T01:50:25;6.38;;;2.50;;
24567;SDS011;12731;52.182;8.716;2023-08-20T01:52:53;4.82;;;2.40;;
24567;SDS011;12731;52.182;8.716;2023-08-20T01:55:20;6.20;;;2.65;;
24567;SDS011;12731;52.182;8.716;2023-08-20T01:57:46;6.47;;;2.70;;
24567;SDS011;12731;52.182;8.716;2023-08-20T02:00:13;4.07;;;2.42;;
24567;SDS011;12731;52.182;8.716;2023-08-20T02:02:39;7.38;;;2.63;;
24567;SDS011;12731;52.182;8.716;2023-08-20T02:05:06;5.68;;;2.63;;
24567;SDS011;12731;52.182;8.716;2023-08-20T02:07:33;4.68;;;2.70;;
24567;SDS011;12731;52.182;8.716;2023-08-20T02:10:00;5.18;;;2.45;;
24567;SDS011;12731;52.182;8.716;2023-08-20T02:12:26;4.07;;;2.35;;
24567;SDS011;12731;52.182;8.716;2023-08-20T02:14:53;6.80;;;2.28;;
24567;SDS011;12731;52.182;8.716;2023-08-20T02:17:20;3.78;;;2.22;;
24567;SDS011;12731;52.182;8.716;2023-08-20T02:19:46;5.25;;;2.40;;
24567;SDS011;12731;52.182;8.716;2023-08-20T02:22:13;4.55;;;2.33;;
24567;SDS011;12731;52.182;8.716;2023-08-20T02:24:39;4.88;;;2.22;;
24567;SDS011;12731;52.182;8.716;2023-08-20T02:27:06;4.55;;;2.25;;
24567;SDS011;12731;52.182;8.716;2023-08-20T02:29:32;6.38;;;2.40;;
24567;SDS011;12731;52.182;8.716;2023-08-20T02:31:59;3.83;;;2.20;;
24567;SDS011;12731;52.182;8.716;2023-08-20T02:34:25;5.50;;;2.33;;
24567;SDS011;12731;52.182;8.716;2023-08-20T02:36:51;6.30;;;2.45;;
24567;SDS011;12731;52.182;8.716;2023-08-20T02:39:18;5.35;;;2.53;;
24567;SDS011;12731;52.182;8.716;2023-08-20T02:41:46;5.55;;;2.50;;
24567;SDS011;12731;52.182;8.716;2023-08-20T02:44:12;4.53;;;2.63;;
24567;SDS011;12731;52.182;8.716;2023-08-20T02:46:39;6.30;;;2.67;;
24567;SDS011;12731;52.182;8.716;2023-08-20T02:49:06;4.78;;;2.60;;
24567;SDS011;12731;52.182;8.716;2023-08-20T02:51:33;6.85;;;2.90;;
24567;SDS011;12731;52.182;8.716;2023-08-20T02:53:59;4.85;;;2.55;;
24567;SDS011;12731;52.182;8.716;2023-08-20T02:56:26;4.95;;;2.97;;
24567;SDS011;12731;52.182;8.716;2023-08-20T02:58:52;4.95;;;2.90;;
24567;SDS011;12731;52.182;8.716;2023-08-20T03:01:20;6.25;;;3.03;;
24567;SDS011;12731;52.182;8.716;2023-08-20T03:03:50;4.63;;;3.17;;
24567;SDS011;12731;52.182;8.716;2023-08-20T03:06:16;5.82;;;3.47;;
24567;SDS011;12731;52.182;8.716;2023-08-20T03:08:43;6.75;;;3.45;;
24567;SDS011;12731;52.182;8.716;2023-08-20T03:11:09;6.45;;;3.65;;
24567;SDS011;12731;52.182;8.716;2023-08-20T03:13:36;7.47;;;3.67;;
24567;SDS011;12731;52.182;8.716;2023-08-20T03:16:03;8.23;;;3.60;;
24567;SDS011;12731;52.182;8.716;2023-08-20T03:18:30;6.65;;;3.25;;
24567;SDS011;12731;52.182;8.716;2023-08-20T03:20:56;5.47;;;3.40;;
24567;SDS011;12731;52.182;8.716;2023-08-20T03:23:23;4.60;;;3.08;;
24567;SDS011;12731;52.182;8.716;2023-08-20T03:25:50;7.03;;;3.33;;
24567;SDS011;12731;52.182;8.716;2023-08-20T03:28:17;7.80;;;3.60;;
24567;SDS011;12731;52.182;8.716;2023-08-20T03:30:44;6.57;;;3.10;;
24567;SDS011;12731;52.182;8.716;2023-08-20T03:33:11;9.00;;;3.97;;
24567;SDS011;12731;52.182;8.716;2023-08-20T03:35:38;7.40;;;3.53;;
24567;SDS011;12731;52.182;8.716;2023-08-20T03:38:05;5.57;;;3.60;;
24567;SDS011;12731;52.182;8.716;2023-08-20T03:40:31;5.35;;;3.30;;
24567;SDS011;12731;52.182;8.716;2023-08-20T03:42:58;6.05;;;3.05;;
24567;SDS011;12731;52.182;8.716;2023-08-20T03:45:24;6.97;;;2.92;;
24567;SDS011;12731;52.182;8.716;2023-08-20T03:47:52;5.90;;;2.75;;
24567;SDS011;12731;52.182;8.716;2023-08-20T03:50:18;5.75;;;3.08;;
24567;SDS011;12731;52.182;8.716;2023-08-20T03:52:45;7.40;;;2.92;;
24567;SDS011;12731;52.182;8.716;2023-08-20T03:55:11;7.22;;;2.90;;
24567;SDS011;12731;52.182;8.716;2023-08-20T03:57:38;5.07;;;2.92;;
24567;SDS011;12731;52.182;8.716;2023-08-20T04:00:05;7.28;;;2.80;;
24567;SDS011;12731;52.182;8.716;2023-08-20T04:02:34;8.00;;;3.35;;
24567;SDS011;12731;52.182;8.716;2023-08-20T04:05:01;5.88;;;3.22;;
24567;SDS011;12731;52.182;8.716;2023-08-20T04:07:29;6.28;;;3.20;;
24567;SDS011;12731;52.182;8.716;2023-08-20T04:09:55;5.30;;;3.05;;
24567;SDS011;12731;52.182;8.716;2023-08-20T04:12:22;5.07;;;2.95;;
24567;SDS011;12731;52.182;8.716;2023-08-20T04:14:48;5.82;;;3.00;;
24567;SDS011;12731;52.182;8.716;2023-08-20T04:17:15;6.43;;;3.80;;
24567;SDS011;12731;52.182;8.716;2023-08-20T04:19:41;6.20;;;3.60;;
24567;SDS011;12731;52.182;8.716;2023-08-20T04:22:08;6.22;;;3.65;;
24567;SDS011;12731;52.182;8.716;2023-08-20T04:24:34;6.63;;;3.50;;
24567;SDS011;12731;52.182;8.716;2023-08-20T04:27:01;5.00;;;3.55;;
24567;SDS011;12731;52.182;8.716;2023-08-20T04:29:27;4.93;;;3.42;;
24567;SDS011;12731;52.182;8.716;2023-08-20T04:31:54;4.93;;;3.17;;
24567;SDS011;12731;52.182;8.716;2023-08-20T04:34:20;5.85;;;3.50;;
24567;SDS011;12731;52.182;8.716;2023-08-20T04:36:47;5.78;;;3.63;;
24567;SDS011;12731;52.182;8.716;2023-08-20T04:39:13;6.32;;;3.38;;
24567;SDS011;12731;52.182;8.716;2023-08-20T04:41:40;5.07;;;3.30;;
24567;SDS011;12731;52.182;8.716;2023-08-20T04:44:06;6.78;;;3.40;;
24567;SDS011;12731;52.182;8.716;2023-08-20T04:46:33;6.15;;;3.08;;
24567;SDS011;12731;52.182;8.716;2023-08-20T04:48:59;4.15;;;3.00;;
24567;SDS011;12731;52.182;8.716;2023-08-20T04:51:26;7.30;;;3.40;;
24567;SDS011;12731;52.182;8.716;2023-08-20T04:53:52;8.27;;;3.58;;
24567;SDS011;12731;52.182;8.716;2023-08-20T04:56:19;4.72;;;3.10;;
24567;SDS011;12731;52.182;8.716;2023-08-20T04:58:45;6.55;;;3.40;;
24567;SDS011;12731;52.182;8.716;2023-08-20T05:01:12;4.55;;;3.00;;
24567;SDS011;12731;52.182;8.716;2023-08-20T05:03:38;6.38;;;3.70;;
24567;SDS011;12731;52.182;8.716;2023-08-20T05:06:05;5.93;;;3.65;;
24567;SDS011;12731;52.182;8.716;2023-08-20T05:08:31;6.60;;;3.83;;
24567;SDS011;12731;52.182;8.716;2023-08-20T05:10:58;5.80;;;3.47;;
24567;SDS011;12731;52.182;8.716;2023-08-20T05:13:24;6.00;;;3.38;;
24567;SDS011;12731;52.182;8.716;2023-08-20T05:15:51;5.32;;;3.65;;
24567;SDS011;12731;52.182;8.716;2023-08-20T05:18:17;5.88;;;3.78;;
24567;SDS011;12731;52.182;8.716;2023-08-20T05:20:44;7.68;;;3.88;;
24567;SDS011;12731;52.182;8.716;2023-08-20T05:23:10;6.60;;;3.78;;
24567;SDS011;12731;52.182;8.716;2023-08-20T05:25:37;6.72;;;3.80;;
24567;SDS011;12731;52.182;8.716;2023-08-20T05:28:03;6.68;;;4.32;;
24567;SDS011;12731;52.182;8.716;2023-08-20T05:30:30;7.70;;;3.85;;
24567;SDS011;12731;52.182;8.716;2023-08-20T05:32:56;9.65;;;4.32;;
24567;SDS011;12731;52.182;8.716;2023-08-20T05:35:23;6.22;;;3.78;;
24567;SDS011;12731;52.182;8.716;2023-08-20T05:37:50;6.07;;;3.92;;
24567;SDS011;12731;52.182;8.716;2023-08-20T05:40:16;6.63;;;4.32;;
24567;SDS011;12731;52.182;8.716;2023-08-20T05:42:43;5.63;;;3.58;;
24567;SDS011;12731;52.182;8.716;2023-08-20T05:45:09;7.03;;;3.88;;
24567;SDS011;12731;52.182;8.716;2023-08-20T05:47:36;6.03;;;3.92;;
24567;SDS011;12731;52.182;8.716;2023-08-20T05:50:03;6.15;;;3.40;;
24567;SDS011;12731;52.182;8.716;2023-08-20T05:52:30;4.38;;;2.92;;
24567;SDS011;12731;52.182;8.716;2023-08-20T05:54:56;4.65;;;3.40;;
24567;SDS011;12731;52.182;8.716;2023-08-20T05:57:23;6.88;;;3.33;;
24567;SDS011;12731;52.182;8.716;2023-08-20T05:59:49;7.70;;;3.53;;
24567;SDS011;12731;52.182;8.716;2023-08-20T06:02:16;6.15;;;3.78;;
24567;SDS011;12731;52.182;8.716;2023-08-20T06:04:44;7.38;;;3.45;;
24567;SDS011;12731;52.182;8.716;2023-08-20T06:07:11;7.75;;;3.53;;
24567;SDS011;12731;52.182;8.716;2023-08-20T06:09:37;4.97;;;3.40;;
24567;SDS011;12731;52.182;8.716;2023-08-20T06:12:04;7.38;;;3.47;;
24567;SDS011;12731;52.182;8.716;2023-08-20T06:14:30;7.32;;;3.65;;
24567;SDS011;12731;52.182;8.716;2023-08-20T06:16:57;4.88;;;3.50;;
24567;SDS011;12731;52.182;8.716;2023-08-20T06:19:23;7.43;;;4.07;;
24567;SDS011;12731;52.182;8.716;2023-08-20T06:21:50;5.88;;;3.50;;
24567;SDS011;12731;52.182;8.716;2023-08-20T06:24:16;6.15;;;3.03;;
24567;SDS011;12731;52.182;8.716;2023-08-20T06:26:43;6.75;;;3.08;;
24567;SDS011;12731;52.182;8.716;2023-08-20T06:29:11;5.32;;;3.33;;
24567;SDS011;12731;52.182;8.716;2023-08-20T06:31:37;4.63;;;2.92;;
24567;SDS011;12731;52.182;8.716;2023-08-20T06:34:04;8.30;;;3.58;;
24567;SDS011;12731;52.182;8.716;2023-08-20T06:36:30;6.78;;;3.15;;
24567;SDS011;12731;52.182;8.716;2023-08-20T06:38:57;6.55;;;2.70;;
24567;SDS011;12731;52.182;8.716;2023-08-20T06:41:23;6.55;;;3.10;;
24567;SDS011;12731;52.182;8.716;2023-08-20T06:43:50;7.43;;;3.17;;
24567;SDS011;12731;52.182;8.716;2023-08-20T06:46:16;5.30;;;2.70;;
24567;SDS011;12731;52.182;8.716;2023-08-20T06:48:42;8.38;;;2.85;;
24567;SDS011;12731;52.182;8.716;2023-08-20T06:51:12;5.57;;;2.80;;
24567;SDS011;12731;52.182;8.716;2023-08-20T06:53:40;6.38;;;2.80;;
24567;SDS011;12731;52.182;8.716;2023-08-20T06:56:10;6.78;;;2.90;;
24567;SDS011;12731;52.182;8.716;2023-08-20T06:58:40;7.07;;;2.85;;
24567;SDS011;12731;52.182;8.716;2023-08-20T07:01:07;7.47;;;2.90;;
24567;SDS011;12731;52.182;8.716;2023-08-20T07:03:35;10.00;;;3.13;;
24567;SDS011;12731;52.182;8.716;2023-08-20T07:06:03;7.63;;;3.38;;
24567;SDS011;12731;52.182;8.716;2023-08-20T07:08:30;6.07;;;2.92;;
24567;SDS011;12731;52.182;8.716;2023-08-20T07:10:56;4.82;;;2.65;;
24567;SDS011;12731;52.182;8.716;2023-08-20T07:13:23;6.90;;;2.85;;
24567;SDS011;12731;52.182;8.716;2023-08-20T07:15:49;5.25;;;3.10;;
24567;SDS011;12731;52.182;8.716;2023-08-20T07:18:16;6.45;;;3.40;;
24567;SDS011;12731;52.182;8.716;2023-08-20T07:20:42;5.68;;;3.22;;
24567;SDS011;12731;52.182;8.716;2023-08-20T07:23:10;6.93;;;3.13;;
24567;SDS011;12731;52.182;8.716;2023-08-20T07:25:40;7.25;;;3.05;;
24567;SDS011;12731;52.182;8.716;2023-08-20T07:28:07;6.22;;;3.35;;
24567;SDS011;12731;52.182;8.716;2023-08-20T07:30:35;6.20;;;3.17;;
24567;SDS011;12731;52.182;8.716;2023-08-20T07:33:01;6.25;;;3.40;;
24567;SDS011;12731;52.182;8.716;2023-08-20T07:35:31;5.85;;;3.30;;
24567;SDS011;12731;52.182;8.716;2023-08-20T07:37:58;6.70;;;3.78;;
24567;SDS011;12731;52.182;8.716;2023-08-20T07:40:25;5.80;;;3.55;;
24567;SDS011;12731;52.182;8.716;2023-08-20T07:42:51;7.05;;;3.60;;
24567;SDS011;12731;52.182;8.716;2023-08-20T07:45:18;5.03;;;3.42;;
24567;SDS011;12731;52.182;8.716;2023-08-20T07:47:44;4.57;;;3.13;;
24567;SDS011;12731;52.182;8.716;2023-08-20T07:50:11;5.85;;;3.63;;
24567;SDS011;12731;52.182;8.716;2023-08-20T07:52:37;4.75;;;3.30;;
24567;SDS011;12731;52.182;8.716;2023-08-20T07:55:04;5.22;;;3.63;;
24567;SDS011;12731;52.182;8.716;2023-08-20T07:57:30;5.22;;;3.50;;
24567;SDS011;12731;52.182;8.716;2023-08-20T07:59:57;5.57;;;3.53;;
24567;SDS011;12731;52.182;8.716;2023-08-20T08:02:23;5.82;;;3.75;;
24567;SDS011;12731;52.182;8.716;2023-08-20T08:04:50;4.47;;;3.42;;
24567;SDS011;12731;52.182;8.716;2023-08-20T08:07:16;4.93;;;3.88;;
24567;SDS011;12731;52.182;8.716;2023-08-20T08:09:43;6.93;;;3.65;;
24567;SDS011;12731;52.182;8.716;2023-08-20T08:12:09;6.78;;;3.95;;
24567;SDS011;12731;52.182;8.716;2023-08-20T08:14:36;5.97;;;3.90;;
24567;SDS011;12731;52.182;8.716;2023-08-20T08:17:02;5.50;;;3.50;;
24567;SDS011;12731;52.182;8.716;2023-08-20T08:19:29;4.45;;;3.45;;
24567;SDS011;12731;52.182;8.716;2023-08-20T08:21:55;4.45;;;3.60;;
24567;SDS011;12731;52.182;8.716;2023-08-20T08:24:22;6.55;;;4.53;;
24567;SDS011;12731;52.182;8.716;2023-08-20T08:26:49;6.53;;;5.10;;
24567;SDS011;12731;52.182;8.716;2023-08-20T08:29:15;7.40;;;4.70;;
24567;SDS011;12731;52.182;8.716;2023-08-20T08:31:42;5.28;;;4.20;;
24567;SDS011;12731;52.182;8.716;2023-08-20T08:34:08;7.15;;;5.10;;
24567;SDS011;12731;52.182;8.716;2023-08-20T08:36:34;7.75;;;6.10;;
24567;SDS011;12731;52.182;8.716;2023-08-20T08:39:03;7.70;;;5.85;;
24567;SDS011;12731;52.182;8.716;2023-08-20T08:41:30;9.80;;;6.70;;
24567;SDS011;12731;52.182;8.716;2023-08-20T08:43:57;6.53;;;5.53;;
24567;SDS011;12731;52.182;8.716;2023-08-20T08:46:23;5.13;;;4.63;;
24567;SDS011;12731;52.182;8.716;2023-08-20T08:48:51;5.72;;;4.50;;
24567;SDS011;12731;52.182;8.716;2023-08-20T08:51:17;7.45;;;6.03;;
24567;SDS011;12731;52.182;8.716;2023-08-20T08:53:44;6.45;;;4.93;;
24567;SDS011;12731;52.182;8.716;2023-08-20T08:56:12;7.57;;;6.30;;
24567;SDS011;12731;52.182;8.716;2023-08-20T08:58:39;8.52;;;7.43;;
24567;SDS011;12731;52.182;8.716;2023-08-20T09:01:05;6.53;;;5.63;;
24567;SDS011;12731;52.182;8.716;2023-08-20T09:03:32;7.45;;;6.25;;
24567;SDS011;12731;52.182;8.716;2023-08-20T09:06:00;6.97;;;6.28;;
24567;SDS011;12731;52.182;8.716;2023-08-20T09:08:29;6.30;;;5.70;;
24567;SDS011;12731;52.182;8.716;2023-08-20T09:10:58;7.63;;;5.88;;
24567;SDS011;12731;52.182;8.716;2023-08-20T09:13:47;6.57;;;4.88;;
24567;SDS011;12731;52.182;8.716;2023-08-20T09:16:12;6.40;;;5.18;;
24567;SDS011;12731;52.182;8.716;2023-08-20T09:21:11;6.00;;;4.55;;
24567;SDS011;12731;52.182;8.716;2023-08-20T09:23:39;4.93;;;4.45;;
24567;SDS011;12731;52.182;8.716;2023-08-20T09:26:06;5.45;;;4.70;;
24567;SDS011;12731;52.182;8.716;2023-08-20T09:28:43;6.82;;;4.90;;
24567;SDS011;12731;52.182;8.716;2023-08-20T09:31:11;9.60;;;5.25;;
24567;SDS011;12731;52.182;8.716;2023-08-20T09:33:59;6.25;;;4.93;;
24567;SDS011;12731;52.182;8.716;2023-08-20T09:36:31;5.25;;;4.32;;
24567;SDS011;12731;52.182;8.716;2023-08-20T09:38:59;4.60;;;4.20;;
24567;SDS011;12731;52.182;8.716;2023-08-20T09:41:25;5.70;;;4.03;;
24567;SDS011;12731;52.182;8.716;2023-08-20T09:43:55;4.07;;;3.63;;
24567;SDS011;12731;52.182;8.716;2023-08-20T09:46:23;5.25;;;3.90;;
24567;SDS011;12731;52.182;8.716;2023-08-20T09:48:50;4.30;;;3.72;;
24567;SDS011;12731;52.182;8.716;2023-08-20T09:51:19;4.15;;;3.80;;
24567;SDS011;12731;52.182;8.716;2023-08-20T09:54:02;5.20;;;3.58;;
24567;SDS011;12731;52.182;8.716;2023-08-20T09:56:38;4.35;;;3.70;;
24567;SDS011;12731;52.182;8.716;2023-08-20T09:59:05;4.53;;;3.90;;
24567;SDS011;12731;52.182;8.716;2023-08-20T10:01:33;4.25;;;3.50;;
24567;SDS011;12731;52.182;8.716;2023-08-20T10:04:00;3.42;;;3.13;;
24567;SDS011;12731;52.182;8.716;2023-08-20T10:06:26;3.72;;;2.97;;
24567;SDS011;12731;52.182;8.716;2023-08-20T10:08:54;3.67;;;3.00;;
24567;SDS011;12731;52.182;8.716;2023-08-20T10:11:20;3.80;;;3.10;;
24567;SDS011;12731;52.182;8.716;2023-08-20T10:13:46;5.53;;;2.83;;
24567;SDS011;12731;52.182;8.716;2023-08-20T10:16:13;2.78;;;2.50;;
24567;SDS011;12731;52.182;8.716;2023-08-20T10:18:40;4.07;;;2.65;;
24567;SDS011;12731;52.182;8.716;2023-08-20T10:21:07;4.50;;;2.90;;
24567;SDS011;12731;52.182;8.716;2023-08-20T10:23:39;5.40;;;3.47;;
24567;SDS011;12731;52.182;8.716;2023-08-20T10:26:09;3.67;;;3.22;;
24567;SDS011;12731;52.182;8.716;2023-08-20T10:28:36;6.13;;;3.38;;
24567;SDS011;12731;52.182;8.716;2023-08-20T10:33:36;3.85;;;3.03;;
24567;SDS011;12731;52.182;8.716;2023-08-20T10:36:22;4.38;;;2.72;;
24567;SDS011;12731;52.182;8.716;2023-08-20T10:38:54;3.25;;;2.80;;
24567;SDS011;12731;52.182;8.716;2023-08-20T10:41:25;4.25;;;3.20;;
24567;SDS011;12731;52.182;8.716;2023-08-20T10:43:52;3.10;;;2.80;;
24567;SDS011;12731;52.182;8.716;2023-08-20T10:46:20;3.40;;;3.00;;
24567;SDS011;12731;52.182;8.716;2023-08-20T10:48:48;4.15;;;3.05;;
24567;SDS011;12731;52.182;8.716;2023-08-20T10:51:26;3.67;;;2.72;;
24567;SDS011;12731;52.182;8.716;2023-08-20T10:59:08;3.22;;;2.65;;
24567;SDS011;12731;52.182;8.716;2023-08-20T11:01:35;3.63;;;3.00;;
24567;SDS011;12731;52.182;8.716;2023-08-20T11:04:03;4.50;;;3.20;;
24567;SDS011;12731;52.182;8.716;2023-08-20T11:06:33;3.85;;;2.88;;
24567;SDS011;12731;52.182;8.716;2023-08-20T11:09:00;3.30;;;3.00;;
24567;SDS011;12731;52.182;8.716;2023-08-20T11:11:29;4.80;;;3.17;;
24567;SDS011;12731;52.182;8.716;2023-08-20T11:13:56;5.50;;;3.40;;
24567;SDS011;12731;52.182;8.716;2023-08-20T11:16:23;3.65;;;3.30;;
24567;SDS011;12731;52.182;8.716;2023-08-20T11:18:51;7.00;;;3.33;;
24567;SDS011;12731;52.182;8.716;2023-08-20T11:21:19;3.78;;;3.20;;
24567;SDS011;12731;52.182;8.716;2023-08-20T11:23:46;3.78;;;3.38;;
24567;SDS011;12731;52.182;8.716;2023-08-20T11:26:17;4.60;;;3.40;;
24567;SDS011;12731;52.182;8.716;2023-08-20T11:28:46;3.45;;;2.80;;
24567;SDS011;12731;52.182;8.716;2023-08-20T11:31:13;3.22;;;2.92;;
24567;SDS011;12731;52.182;8.716;2023-08-20T11:33:40;3.30;;;3.00;;
24567;SDS011;12731;52.182;8.716;2023-08-20T11:36:06;4.53;;;3.42;;
24567;SDS011;12731;52.182;8.716;2023-08-20T11:38:33;4.15;;;2.90;;
24567;SDS011;12731;52.182;8.716;2023-08-20T11:41:00;3.35;;;2.80;;
24567;SDS011;12731;52.182;8.716;2023-08-20T11:43:27;3.88;;;3.05;;
24567;SDS011;12731;52.182;8.716;2023-08-20T11:45:56;3.63;;;3.08;;
24567;SDS011;12731;52.182;8.716;2023-08-20T11:48:23;4.82;;;2.90;;
24567;SDS011;12731;52.182;8.716;2023-08-20T11:50:50;3.20;;;2.90;;
24567;SDS011;12731;52.182;8.716;2023-08-20T11:53:20;3.80;;;3.08;;
24567;SDS011;12731;52.182;8.716;2023-08-20T11:55:48;3.33;;;2.78;;
24567;SDS011;12731;52.182;8.716;2023-08-20T11:58:15;3.08;;;2.78;;
24567;SDS011;12731;52.182;8.716;2023-08-20T12:00:41;3.78;;;2.83;;
24567;SDS011;12731;52.182;8.716;2023-08-20T12:03:08;2.80;;;2.60;;
24567;SDS011;12731;52.182;8.716;2023-08-20T12:05:36;4.63;;;3.00;;
24567;SDS011;12731;52.182;8.716;2023-08-20T12:08:03;3.85;;;2.80;;
24567;SDS011;12731;52.182;8.716;2023-08-20T12:10:31;3.33;;;2.97;;
24567;SDS011;12731;52.182;8.716;2023-08-20T12:12:58;2.97;;;2.75;;
24567;SDS011;12731;52.182;8.716;2023-08-20T12:15:24;4.05;;;2.90;;
24567;SDS011;12731;52.182;8.716;2023-08-20T12:17:58;3.22;;;2.80;;
24567;SDS011;12731;52.182;8.716;2023-08-20T12:20:31;3.20;;;2.75;;
24567;SDS011;12731;52.182;8.716;2023-08-20T12:23:00;3.38;;;3.08;;
24567;SDS011;12731;52.182;8.716;2023-08-20T12:25:29;3.30;;;3.00;;
24567;SDS011;12731;52.182;8.716;2023-08-20T12:27:57;5.82;;;3.17;;
24567;SDS011;12731;52.182;8.716;2023-08-20T12:30:23;3.53;;;3.20;;
24567;SDS011;12731;52.182;8.716;2023-08-20T12:32:50;4.80;;;2.83;;
24567;SDS011;12731;52.182;8.716;2023-08-20T12:35:16;5.65;;;3.28;;
24567;SDS011;12731;52.182;8.716;2023-08-20T12:37:43;3.25;;;2.83;;
24567;SDS011;12731;52.182;8.716;2023-08-20T12:40:10;3.28;;;2.97;;
24567;SDS011;12731;52.182;8.716;2023-08-20T12:42:38;4.05;;;3.25;;
24567;SDS011;12731;52.182;8.716;2023-08-20T12:45:09;4.45;;;2.95;;
24567;SDS011;12731;52.182;8.716;2023-08-20T12:47:36;3.15;;;2.85;;
24567;SDS011;12731;52.182;8.716;2023-08-20T12:50:04;5.72;;;3.17;;
24567;SDS011;12731;52.182;8.716;2023-08-20T12:52:31;3.63;;;3.33;;
24567;SDS011;12731;52.182;8.716;2023-08-20T12:54:58;3.38;;;3.08;;
24567;SDS011;12731;52.182;8.716;2023-08-20T12:57:25;5.35;;;3.50;;
24567;SDS011;12731;52.182;8.716;2023-08-20T12:59:51;4.97;;;3.30;;
24567;SDS011;12731;52.182;8.716;2023-08-20T13:02:18;4.65;;;3.45;;
24567;SDS011;12731;52.182;8.716;2023-08-20T13:04:46;3.33;;;3.03;;
24567;SDS011;12731;52.182;8.716;2023-08-20T13:07:13;3.97;;;3.20;;
24567;SDS011;12731;52.182;8.716;2023-08-20T13:09:40;3.90;;;3.42;;
24567;SDS011;12731;52.182;8.716;2023-08-20T13:12:07;3.97;;;3.20;;
24567;SDS011;12731;52.182;8.716;2023-08-20T13:14:39;4.28;;;3.25;;
24567;SDS011;12731;52.182;8.716;2023-08-20T13:17:07;3.30;;;2.97;;
24567;SDS011;12731;52.182;8.716;2023-08-20T13:19:34;4.97;;;3.30;;
24567;SDS011;12731;52.182;8.716;2023-08-20T13:22:00;5.93;;;3.83;;
24567;SDS011;12731;52.182;8.716;2023-08-20T13:24:27;5.70;;;3.38;;
24567;SDS011;12731;52.182;8.716;2023-08-20T13:26:54;4.28;;;3.58;;
24567;SDS011;12731;52.182;8.716;2023-08-20T13:29:20;3.42;;;3.13;;
24567;SDS011;12731;52.182;8.716;2023-08-20T13:31:47;3.50;;;3.20;;
24567;SDS011;12731;52.182;8.716;2023-08-20T13:34:13;3.92;;;3.53;;
24567;SDS011;12731;52.182;8.716;2023-08-20T13:36:40;3.90;;;3.53;;
24567;SDS011;12731;52.182;8.716;2023-08-20T13:39:07;3.88;;;3.47;;
24567;SDS011;12731;52.182;8.716;2023-08-20T13:41:33;4.00;;;3.60;;
24567;SDS011;12731;52.182;8.716;2023-08-20T13:44:00;4.95;;;3.78;;
24567;SDS011;12731;52.182;8.716;2023-08-20T13:46:26;4.32;;;3.67;;
24567;SDS011;12731;52.182;8.716;2023-08-20T13:48:53;5.47;;;3.45;;
24567;SDS011;12731;52.182;8.716;2023-08-20T13:51:19;3.92;;;3.58;;
24567;SDS011;12731;52.182;8.716;2023-08-20T13:53:46;3.85;;;3.33;;
24567;SDS011;12731;52.182;8.716;2023-08-20T13:56:12;3.78;;;3.38;;
24567;SDS011;12731;52.182;8.716;2023-08-20T13:58:39;4.70;;;3.40;;
24567;SDS011;12731;52.182;8.716;2023-08-20T14:01:05;3.63;;;3.33;;
24567;SDS011;12731;52.182;8.716;2023-08-20T14:03:33;3.83;;;3.15;;
24567;SDS011;12731;52.182;8.716;2023-08-20T14:05:59;3.75;;;3.28;;
24567;SDS011;12731;52.182;8.716;2023-08-20T14:08:26;6.90;;;3.33;;
24567;SDS011;12731;52.182;8.716;2023-08-20T14:10:52;3.30;;;3.00;;
24567;SDS011;12731;52.182;8.716;2023-08-20T14:13:19;3.72;;;3.25;;
24567;SDS011;12731;52.182;8.716;2023-08-20T14:15:45;3.70;;;3.22;;
24567;SDS011;12731;52.182;8.716;2023-08-20T14:18:12;4.50;;;3.08;;
24567;SDS011;12731;52.182;8.716;2023-08-20T14:20:38;3.28;;;2.80;;
24567;SDS011;12731;52.182;8.716;2023-08-20T14:23:05;3.40;;;3.10;;
24567;SDS011;12731;52.182;8.716;2023-08-20T14:25:31;5.50;;;2.90;;
24567;SDS011;12731;52.182;8.716;2023-08-20T14:27:58;3.53;;;3.13;;
24567;SDS011;12731;52.182;8.716;2023-08-20T14:30:24;3.97;;;2.63;;
24567;SDS011;12731;52.182;8.716;2023-08-20T14:32:51;3.50;;;2.90;;
24567;SDS011;12731;52.182;8.716;2023-08-20T14:35:19;3.35;;;2.72;;
24567;SDS011;12731;52.182;8.716;2023-08-20T14:37:45;3.65;;;3.28;;
24567;SDS011;12731;52.182;8.716;2023-08-20T14:40:12;3.28;;;2.97;;
24567;SDS011;12731;52.182;8.716;2023-08-20T14:42:38;5.65;;;3.13;;
24567;SDS011;12731;52.182;8.716;2023-08-20T14:45:07;3.47;;;3.15;;
24567;SDS011;12731;52.182;8.716;2023-08-20T14:47:34;3.70;;;3.05;;
24567;SDS011;12731;52.182;8.716;2023-08-20T14:50:01;3.92;;;3.10;;
24567;SDS011;12731;52.182;8.716;2023-08-20T14:52:28;3.65;;;2.97;;
24567;SDS011;12731;52.182;8.716;2023-08-20T14:54:55;3.53;;;3.20;;
24567;SDS011;12731;52.182;8.716;2023-08-20T14:57:21;4.65;;;3.42;;
24567;SDS011;12731;52.182;8.716;2023-08-20T14:59:47;3.35;;;3.05;;
24567;SDS011;12731;52.182;8.716;2023-08-20T15:02:15;4.07;;;2.90;;
24567;SDS011;12731;52.182;8.716;2023-08-20T15:04:41;4.57;;;3.33;;
24567;SDS011;12731;52.182;8.716;2023-08-20T15:07:08;4.32;;;3.00;;
24567;SDS011;12731;52.182;8.716;2023-08-20T15:09:34;3.70;;;3.00;;